• Join FlightAware (Why Join?)
  • Login
  • US Flag 
04:04PM EDT


 

Airport Tracker/Info


-or-


 

Live Flight TrackerFlight Track Log ✈ B-2086 ✈ 14-Apr-2013 ✈ ZBAA / PEK - KJFK

Flight Track Log - Related Links

Times and Time Zones

All times are in EDT time to prevent confusion due to time zone crossing. See the B-2086 flight status page for this flight to view local times or setup timezone preferences in your user account.

Time Position Orientation Groundspeed Altitude Reporting Facility
EDT Latitude Longitude Course Direction KTS MPH feet Rate Location/Type
09:37PM 40.3812 116.9568 43° Northeast  Level FlightAware Approximate
09:38PM 40.4813 117.0816 43° Northeast  Level FlightAware Approximate
09:39PM 40.5812 117.2068 44° Northeast  Level FlightAware Approximate
09:40PM 40.6810 117.3324 44° Northeast  Level FlightAware Approximate
09:41PM 40.7807 117.4583 44° Northeast  Level FlightAware Approximate
09:42PM 40.8803 117.5846 44° Northeast  Level FlightAware Approximate
09:43PM 40.9797 117.7113 44° Northeast  Level FlightAware Approximate
09:44PM 41.0789 117.8384 44° Northeast  Level FlightAware Approximate
09:45PM 41.1781 117.9659 44° Northeast  Level FlightAware Approximate
09:46PM 41.2771 118.0937 44° Northeast  Level FlightAware Approximate
09:47PM 41.3685 118.2122 44° Northeast  Level FlightAware Approximate
09:48PM 41.4673 118.3405 44° Northeast  Level FlightAware Approximate
09:49PM 41.5661 118.4693 44° Northeast  Level FlightAware Approximate
09:50PM 41.6646 118.5985 44° Northeast  Level FlightAware Approximate
09:51PM 41.7631 118.7281 44° Northeast  Level FlightAware Approximate
09:52PM 41.8614 118.8580 45° Northeast  Level FlightAware Approximate
09:53PM 41.9595 118.9884 45° Northeast  Level FlightAware Approximate
09:54PM 42.0575 119.1192 45° Northeast  Level FlightAware Approximate
09:55PM 42.1553 119.2503 45° Northeast  Level FlightAware Approximate
09:56PM 42.2531 119.3819 45° Northeast  Level FlightAware Approximate
09:57PM 42.3506 119.5139 45° Northeast  Level FlightAware Approximate
09:58PM 42.4480 119.6463 45° Northeast  Level FlightAware Approximate
09:59PM 42.5452 119.7791 45° Northeast  Level FlightAware Approximate
10:00PM 42.6423 119.9124 46° Northeast  Level FlightAware Approximate
10:01PM 42.7388 120.0465 46° Northeast  Level FlightAware Approximate
10:02PM 42.8352 120.1811 46° Northeast  Level FlightAware Approximate
10:03PM 42.9315 120.3160 46° Northeast  Level FlightAware Approximate
10:04PM 43.0276 120.4514 46° Northeast  Level FlightAware Approximate
10:05PM 43.1235 120.5872 46° Northeast  Level FlightAware Approximate
10:06PM 43.2193 120.7235 46° Northeast  Level FlightAware Approximate
10:07PM 43.3149 120.8601 46° Northeast  Level FlightAware Approximate
10:08PM 43.4103 120.9972 46° Northeast  Level FlightAware Approximate
10:09PM 43.5056 121.1348 46° Northeast  Level FlightAware Approximate
10:10PM 43.6007 121.2727 46° Northeast  Level FlightAware Approximate
10:11PM 43.6957 121.4111 46° Northeast  Level FlightAware Approximate
10:12PM 43.7905 121.5500 47° Northeast  Level FlightAware Approximate
10:13PM 43.8851 121.6893 47° Northeast  Level FlightAware Approximate
10:14PM 43.9795 121.8290 47° Northeast  Level FlightAware Approximate
10:15PM 44.0738 121.9691 47° Northeast  Level FlightAware Approximate
10:16PM 44.1679 122.1098 47° Northeast  Level FlightAware Approximate
10:17PM 44.2618 122.2508 47° Northeast  Level FlightAware Approximate
10:18PM 44.3555 122.3923 47° Northeast  Level FlightAware Approximate
10:19PM 44.4491 122.5343 47° Northeast  Level FlightAware Approximate
10:20PM 44.5425 122.6767 47° Northeast  Level FlightAware Approximate
10:21PM 44.6357 122.8196 47° Northeast  Level FlightAware Approximate
10:22PM 44.7288 122.9630 48° Northeast  Level FlightAware Approximate
10:23PM 44.8217 123.1068 48° Northeast  Level FlightAware Approximate
10:24PM 44.9143 123.2510 48° Northeast  Level FlightAware Approximate
10:25PM 45.0068 123.3958 48° Northeast  Level FlightAware Approximate
10:26PM 45.0992 123.5410 48° Northeast  Level FlightAware Approximate
10:27PM 45.1913 123.6866 48° Northeast  Level FlightAware Approximate
10:28PM 45.2832 123.8328 48° Northeast  Level FlightAware Approximate
10:29PM 45.3750 123.9794 48° Northeast  Level FlightAware Approximate
10:30PM 45.4666 124.1265 48° Northeast  Level FlightAware Approximate
10:31PM 45.5579 124.2740 48° Northeast  Level FlightAware Approximate
10:32PM 45.6491 124.4221 49° Northeast  Level FlightAware Approximate
10:33PM 45.7401 124.5706 49° Northeast  Level FlightAware Approximate
10:34PM 45.8309 124.7196 49° Northeast  Level FlightAware Approximate
10:35PM 45.9216 124.8691 49° Northeast  Level FlightAware Approximate
10:36PM 46.0120 125.0191 49° Northeast  Level FlightAware Approximate
10:37PM 46.1022 125.1696 49° Northeast  Level FlightAware Approximate
10:38PM 46.1922 125.3206 49° Northeast  Level FlightAware Approximate
10:39PM 46.2820 125.4720 49° Northeast  Level FlightAware Approximate
10:40PM 46.3717 125.6240 49° Northeast  Level FlightAware Approximate
10:41PM 46.4611 125.7765 50° Northeast  Level FlightAware Approximate
10:42PM 46.5503 125.9294 50° Northeast  Level FlightAware Approximate
10:43PM 46.6393 126.0829 50° Northeast  Level FlightAware Approximate
10:44PM 46.7281 126.2369 50° Northeast  Level FlightAware Approximate
10:45PM 46.8167 126.3913 50° Northeast  Level FlightAware Approximate
10:46PM 46.9051 126.5463 50° Northeast  Level FlightAware Approximate
10:47PM 46.9935 126.7017 50° Northeast  Level FlightAware Approximate
10:48PM 47.0816 126.8575 50° Northeast  Level FlightAware Approximate
10:49PM 47.1696 127.0138 50° Northeast  Level FlightAware Approximate
10:50PM 47.2573 127.1706 50° Northeast  Level FlightAware Approximate
10:51PM 47.3449 127.3279 51° Northeast  Level FlightAware Approximate
10:52PM 47.4322 127.4858 51° Northeast  Level FlightAware Approximate
10:53PM 47.5193 127.6442 51° Northeast  Level FlightAware Approximate
10:54PM 47.6061 127.8031 51° Northeast  Level FlightAware Approximate
10:55PM 47.6928 127.9625 51° Northeast  Level FlightAware Approximate
10:56PM 47.7792 128.1225 51° Northeast  Level FlightAware Approximate
10:57PM 47.8654 128.2830 51° Northeast  Level FlightAware Approximate
10:58PM 47.9514 128.4440 51° Northeast  Level FlightAware Approximate
10:59PM 48.0372 128.6056 52° Northeast  Level FlightAware Approximate
11:00PM 48.1227 128.7677 52° Northeast  Level FlightAware Approximate
11:01PM 48.2080 128.9303 52° Northeast  Level FlightAware Approximate
11:02PM 48.2931 129.0935 52° Northeast  Level FlightAware Approximate
11:03PM 48.3779 129.2573 52° Northeast  Level FlightAware Approximate
11:04PM 48.4625 129.4216 52° Northeast  Level FlightAware Approximate
11:05PM 48.5469 129.5864 52° Northeast  Level FlightAware Approximate
11:06PM 48.6310 129.7518 52° Northeast  Level FlightAware Approximate
11:07PM 48.7149 129.9177 52° Northeast  Level FlightAware Approximate
11:08PM 48.7986 130.0842 53° Northeast  Level FlightAware Approximate
11:09PM 48.8820 130.2512 53° Northeast  Level FlightAware Approximate
11:10PM 48.9651 130.4188 53° Northeast  Level FlightAware Approximate
11:11PM 49.0481 130.5869 53° Northeast  Level FlightAware Approximate
11:12PM 49.1308 130.7557 53° Northeast  Level FlightAware Approximate
11:13PM 49.2132 130.9249 53° Northeast  Level FlightAware Approximate
11:14PM 49.2954 131.0948 53° Northeast  Level FlightAware Approximate
11:15PM 49.3773 131.2652 54° Northeast  Level FlightAware Approximate
11:15PM 46.8950 130.6630 54° Northeast 512 589 31,000  Level FlightAware
11:16PM 49.4590 131.4362 54° Northeast  Level FlightAware Approximate
11:16PM 46.9290 130.7930 69° East 511 588 31,000  Level FlightAware
11:16PM 46.9640 130.9250 69° East 512 589 31,000  Level FlightAware
11:17PM 47.0040 131.0750 69° East 515 593 31,000  Level FlightAware
11:18PM 47.0470 131.2400 69° East 515 593 31,000  Level FlightAware
11:19PM 47.0740 131.3470 70° East 515 593 31,000  Level FlightAware
11:19PM 47.1040 131.4620 69° East 516 594 31,000  Level FlightAware
11:20PM 47.1450 131.6210 69° East 515 593 31,000  Level FlightAware
11:21PM 47.1780 131.7510 69° East 516 594 31,000  Level FlightAware
11:22PM 47.2230 131.9260 69° East 518 596 31,000  Level FlightAware
11:22PM 47.2590 132.0700 70° East 518 596 31,000  Level FlightAware
11:23PM 47.2950 132.2140 70° East 518 596 31,000  Level FlightAware
11:24PM 47.3430 132.4080 70° East 522 601 31,000  Level FlightAware
11:25PM 47.3900 132.6000 70° East 522 601 31,000  Level FlightAware
11:26PM 47.4180 132.7150 70° East 522 601 31,000  Level FlightAware
11:26PM 47.4580 132.8790 70° East 525 604 31,000  Level FlightAware
11:27PM 47.4930 133.0250 70° East 524 603 31,000  Level FlightAware
11:28PM 47.5260 133.1610 70° East 522 601 31,000  Level FlightAware
11:28PM 47.5580 133.2960 71° East 524 603 31,000  Level FlightAware
11:29PM 47.5950 133.4520 71° East 526 605 31,000  Level FlightAware
11:30PM 47.6240 133.5760 71° East 525 604 31,000  Level FlightAware
11:31PM 47.6630 133.7420 71° East 526 605 31,000  Level FlightAware
11:31PM 47.6940 133.8790 71° East 526 605 31,000  Level FlightAware
11:32PM 47.7260 134.0180 71° East 525 604 31,000  Level FlightAware
11:33PM 47.7560 134.1480 71° East 526 605 31,000  Level FlightAware
11:33PM 47.7910 134.3000 71° East 527 606 31,000  Level FlightAware
11:34PM 47.8310 134.4760 71° East 528 608 31,000  Level FlightAware
11:35PM 47.8560 134.5850 71° East 530 610 31,000  Level FlightAware
11:35PM 47.8880 134.6520 55° Northeast 534 615 31,000  Level FlightAware
11:36PM 47.9620 134.7260 34° Northeast 542 624 31,000  Level FlightAware
11:36PM 48.0700 134.8130 28° Northeast 536 617 31,000  Level FlightAware
11:37PM 48.1360 134.8670 29° Northeast 536 617 31,000  Level FlightAware
11:38PM 48.2690 134.9770 29° Northeast 536 617 31,000  Level FlightAware
11:38PM 48.3760 135.0670 29° Northeast 538 619 31,000  Level FlightAware
11:39PM 48.4530 135.1320 29° Northeast 539 620 31,000  Level FlightAware
11:40PM 48.5480 135.2220 32° Northeast 541 623 31,000  Level FlightAware
11:41PM 48.6220 135.3220 42° Northeast 539 620 31,000  Level FlightAware
11:41PM 48.7030 135.4420 44° Northeast 537 618 31,000  Level FlightAware
11:42PM 48.7780 135.5540 45° Northeast 537 618 31,000  Level FlightAware
11:43PM 48.8490 135.6600 44° Northeast 537 618 31,000  Level FlightAware
11:44PM 48.9600 135.8260 44° Northeast 540 621 31,000  Level FlightAware
11:45PM 49.0440 135.9510 44° Northeast 538 619 31,000  Level FlightAware
11:45PM 49.1300 136.0830 45° Northeast 540 621 31,000  Level FlightAware
11:46PM 49.1980 136.1880 45° Northeast 540 621 31,000  Level FlightAware
11:47PM 49.2940 136.3350 45° Northeast 538 619 31,000  Level FlightAware
11:48PM 49.3720 136.4560 45° Northeast 535 616 31,000  Level FlightAware
11:49PM 49.4730 136.5950 42° Northeast 537 618 31,000  Level FlightAware
11:49PM 49.5390 136.6650 35° Northeast 540 621 31,000  Level FlightAware
11:50PM 49.6510 136.7810 34° Northeast 539 620 31,000  Level FlightAware
11:51PM 49.7300 136.8610 33° Northeast 540 621 31,000  Level FlightAware
11:52PM 49.8220 136.9560 34° Northeast 541 623 31,000  Level FlightAware
11:52PM 49.9110 137.0480 34° Northeast 542 624 31,000  Level FlightAware
11:53PM 49.9890 137.1300 34° Northeast 541 623 31,000  Level FlightAware
11:54PM 50.0810 137.2260 34° Northeast 540 621 31,000  Level FlightAware
11:55PM 50.2280 137.3840 34° Northeast 542 624 31,000  Level FlightAware
11:56PM 50.3390 137.5030 34° Northeast 541 623 31,000  Level FlightAware
11:56PM 50.4260 137.6000 35° Northeast 542 624 31,000  Level FlightAware
11:57PM 50.4980 137.6870 38° Northeast 542 624 31,000  Level FlightAware
11:58PM 50.5810 137.7900 38° Northeast 541 623 31,000  Level FlightAware
11:59PM 50.6710 137.9000 38° Northeast 537 618 31,000  Level FlightAware
11:59PM 50.7500 137.9970 38° Northeast 535 616 31,000  Level FlightAware
12:00AM 50.8340 138.0990 37° Northeast 533 613 31,000  Level FlightAware
12:01AM 50.9390 138.2260 37° Northeast 532 612 31,000  Level FlightAware
12:02AM 51.0060 138.3060 37° Northeast 532 612 31,000  Level FlightAware
12:02AM 51.0730 138.3870 37° Northeast 532 612 31,000  Level FlightAware
12:03AM 51.1390 138.4670 37° Northeast 532 612 31,000  Level FlightAware
12:04AM 51.2060 138.5470 37° Northeast 532 612 31,000  Level FlightAware
12:04AM 51.2900 138.6480 37° Northeast 532 612 31,000  Level FlightAware
12:05AM 51.3570 138.7280 37° Northeast 532 612 31,000  Level FlightAware
12:06AM 51.4230 138.8090 37° Northeast 532 612 31,000  Level FlightAware
12:06AM 51.4900 138.8900 37° Northeast 532 612 31,000  Level FlightAware
12:07AM 51.5570 138.9710 37° Northeast 532 612 31,000  Level FlightAware
12:08AM 51.6410 139.0720 37° Northeast 532 612 31,000  Level FlightAware
12:09AM 51.7070 139.1530 37° Northeast 532 612 31,000  Level FlightAware
12:09AM 51.7740 139.2350 37° Northeast 532 612 31,000  Level FlightAware
12:10AM 51.8410 139.3160 37° Northeast 532 612 31,000  Level FlightAware
12:13AM 52.1710 139.5633 25° Northeast  Level Estimated
12:14AM 52.2962 139.6581 25° Northeast  Level Estimated
12:15AM 52.4213 139.7535 25° Northeast  Level Estimated
12:16AM 52.5463 139.8495 25° Northeast  Level Estimated
12:17AM 52.6712 139.9460 25° Northeast  Level Estimated
12:18AM 52.7961 140.0430 25° Northeast  Level Estimated
12:19AM 52.9209 140.1406 25° Northeast  Level Estimated
12:20AM 53.0456 140.2388 25° Northeast  Level Estimated
12:21AM 53.1702 140.3375 25° Northeast  Level Estimated
12:22AM 53.2948 140.4368 25° Northeast  Level Estimated
12:23AM 53.4192 140.5367 26° Northeast  Level Estimated
12:24AM 53.5436 140.6372 26° Northeast  Level Estimated
12:25AM 53.6679 140.7383 26° Northeast  Level Estimated
12:26AM 53.7921 140.8399 26° Northeast  Level Estimated
12:27AM 53.9162 140.9422 26° Northeast  Level Estimated
12:28AM 54.0402 141.0451 26° Northeast  Level Estimated
12:29AM 54.1642 141.1486 26° Northeast  Level Estimated
12:30AM 54.2880 141.2527 26° Northeast  Level Estimated
12:31AM 54.4118 141.3575 26° Northeast  Level Estimated
12:32AM 54.5355 141.4628 26° Northeast  Level Estimated
12:33AM 54.6590 141.5689 26° Northeast  Level Estimated
12:34AM 54.7825 141.6755 26° Northeast  Level Estimated
12:35AM 54.9059 141.7829 27° Northeast  Level Estimated
12:36AM 55.0292 141.8908 27° Northeast  Level Estimated
12:37AM 55.1524 141.9995 27° Northeast  Level Estimated
12:38AM 55.2755 142.1088 27° Northeast  Level Estimated
12:39AM 55.3985 142.2188 27° Northeast  Level Estimated
12:40AM 55.5214 142.3295 27° Northeast  Level Estimated
12:41AM 55.6442 142.4409 27° Northeast  Level Estimated
12:42AM 55.7669 142.5529 27° Northeast  Level Estimated
12:43AM 55.8895 142.6657 27° Northeast  Level Estimated
12:44AM 56.0121 142.7792 27° Northeast  Level Estimated
12:45AM 56.1344 142.8935 27° Northeast  Level Estimated
12:46AM 56.2567 143.0084 28° Northeast  Level Estimated
12:47AM 56.3789 143.1241 28° Northeast  Level Estimated
12:48AM 56.5010 143.2405 28° Northeast  Level Estimated
12:49AM 56.6229 143.3577 28° Northeast  Level Estimated
12:50AM 56.7448 143.4757 28° Northeast  Level Estimated
12:51AM 56.8665 143.5944 28° Northeast  Level Estimated
12:52AM 56.9882 143.7139 28° Northeast  Level Estimated
12:53AM 57.1097 143.8341 28° Northeast  Level Estimated
12:54AM 57.2311 143.9552 28° Northeast  Level Estimated
12:55AM 57.3523 144.0771 28° Northeast  Level Estimated
12:56AM 57.4735 144.1997 29° Northeast  Level Estimated
12:57AM 57.5946 144.3232 29° Northeast  Level Estimated
12:58AM 57.7155 144.4475 29° Northeast  Level Estimated
12:59AM 57.8363 144.5727 29° Northeast  Level Estimated
01:00AM 57.9569 144.6986 29° Northeast  Level Estimated
01:01AM 58.0775 144.8255 29° Northeast  Level Estimated
01:02AM 58.1979 144.9532 29° Northeast  Level Estimated
01:03AM 58.3182 145.0817 29° Northeast  Level Estimated
01:04AM 58.4384 145.2112 29° Northeast  Level Estimated
01:05AM 58.5584 145.3415 30° Northeast  Level Estimated
01:06AM 58.6783 145.4727 30° Northeast  Level Estimated
01:07AM 58.7980 145.6048 30° Northeast  Level Estimated
01:08AM 58.9177 145.7379 30° Northeast  Level Estimated
01:09AM 59.0372 145.8718 30° Northeast  Level Estimated
01:10AM 59.1565 146.0067 30° Northeast  Level Estimated
01:11AM 59.2757 146.1426 30° Northeast  Level Estimated
01:12AM 59.3948 146.2794 30° Northeast  Level Estimated
01:13AM 59.5137 146.4171 30° Northeast  Level Estimated
01:14AM 59.6325 146.5558 31° Northeast  Level Estimated
01:15AM 59.7511 146.6956 31° Northeast  Level Estimated
01:16AM 59.8696 146.8363 31° Northeast  Level Estimated
01:17AM 59.9879 146.9780 31° Northeast  Level Estimated
01:18AM 60.1061 147.1207 31° Northeast  Level Estimated
01:19AM 60.2241 147.2645 31° Northeast  Level Estimated
01:20AM 60.3420 147.4093 31° Northeast  Level Estimated
01:21AM 60.4597 147.5551 31° Northeast  Level Estimated
01:22AM 60.5773 147.7021 32° Northeast  Level Estimated
01:23AM 60.6946 147.8500 32° Northeast  Level Estimated
01:24AM 60.8119 147.9991 32° Northeast  Level Estimated
01:25AM 60.9289 148.1493 32° Northeast  Level Estimated
01:26AM 61.0458 148.3005 32° Northeast  Level Estimated
01:27AM 61.1625 148.4529 32° Northeast  Level Estimated
01:28AM 61.2790 148.6064 32° Northeast  Level Estimated
01:29AM 61.3954 148.7611 32° Northeast  Level Estimated
01:30AM 61.5116 148.9169 33° Northeast  Level Estimated
01:31AM 61.6276 149.0739 33° Northeast  Level Estimated
01:32AM 61.7434 149.2321 33° Northeast  Level Estimated
01:33AM 61.8591 149.3914 33° Northeast  Level Estimated
01:34AM 61.9745 149.5520 33° Northeast  Level Estimated
01:35AM 62.0898 149.7138 33° Northeast  Level Estimated
01:36AM 62.2049 149.8768 33° Northeast  Level Estimated
01:37AM 62.3198 150.0410 34° Northeast  Level Estimated
01:38AM 62.4345 150.2066 34° Northeast  Level Estimated
01:39AM 62.5490 150.3734 34° Northeast  Level Estimated
01:40AM 62.6633 150.5414 34° Northeast  Level Estimated
01:41AM 62.7774 150.7108 34° Northeast  Level Estimated
01:42AM 62.8913 150.8815 34° Northeast  Level Estimated
01:43AM 63.0049 151.0535 34° Northeast  Level Estimated
01:44AM 63.1184 151.2269 35° Northeast  Level Estimated
01:45AM 63.2317 151.4016 35° Northeast  Level Estimated
01:46AM 63.3447 151.5777 35° Northeast  Level Estimated
01:47AM 63.4575 151.7552 35° Northeast  Level Estimated
01:48AM 63.5701 151.9341 35° Northeast  Level Estimated
01:49AM 63.6825 152.1144 35° Northeast  Level Estimated
01:50AM 63.7947 152.2962 36° Northeast  Level Estimated
01:51AM 63.9066 152.4794 36° Northeast  Level Estimated
01:52AM 64.0183 152.6640 36° Northeast  Level Estimated
01:53AM 64.1297 152.8502 36° Northeast  Level Estimated
01:54AM 64.2409 153.0378 36° Northeast  Level Estimated
01:55AM 64.3519 153.2270 36° Northeast  Level Estimated
01:56AM 64.4626 153.4177 37° Northeast  Level Estimated
01:57AM 64.5731 153.6099 37° Northeast  Level Estimated
01:58AM 64.6833 153.8037 37° Northeast  Level Estimated
01:59AM 64.7933 153.9991 37° Northeast  Level Estimated
02:00AM 64.9030 154.1961 37° Northeast  Level Estimated
02:01AM 65.0124 154.3947 37° Northeast  Level Estimated
02:02AM 65.1216 154.5949 38° Northeast  Level Estimated
02:03AM 65.2305 154.7968 38° Northeast  Level Estimated
02:04AM 65.3392 155.0003 38° Northeast  Level Estimated
02:05AM 65.4475 155.2056 38° Northeast  Level Estimated
02:06AM 65.5556 155.4125 38° Northeast  Level Estimated
02:07AM 65.6634 155.6212 39° Northeast  Level Estimated
02:08AM 65.7709 155.8315 39° Northeast  Level Estimated
02:09AM 65.8781 156.0437 39° Northeast  Level Estimated
02:10AM 65.9850 156.2576 39° Northeast  Level Estimated
02:11AM 66.0917 156.4734 39° Northeast  Level Estimated
02:12AM 66.1980 156.6909 40° Northeast  Level Estimated
02:13AM 66.3040 156.9103 40° Northeast  Level Estimated
02:14AM 66.4097 157.1315 40° Northeast  Level Estimated
02:15AM 66.5151 157.3547 40° Northeast  Level Estimated
02:16AM 66.6201 157.5797 40° Northeast  Level Estimated
02:17AM 66.7249 157.8066 41° Northeast  Level Estimated
02:18AM 66.8293 158.0354 41° Northeast  Level Estimated
02:19AM 66.9334 158.2663 41° Northeast  Level Estimated
02:20AM 67.0371 158.4990 41° Northeast  Level Estimated
02:21AM 67.1405 158.7338 41° Northeast  Level Estimated
02:22AM 67.2436 158.9706 42° Northeast  Level Estimated
02:23AM 67.3463 159.2094 42° Northeast  Level Estimated
02:24AM 67.4486 159.4503 42° Northeast  Level Estimated
02:25AM 67.5506 159.6933 42° Northeast  Level Estimated
02:26AM 67.6522 159.9384 42° Northeast  Level Estimated
02:27AM 67.7534 160.1855 43° Northeast  Level Estimated
02:28AM 67.8543 160.4348 43° Northeast  Level Estimated
02:29AM 67.9548 160.6863 43° Northeast  Level Estimated
02:30AM 68.0549 160.9400 43° Northeast  Level Estimated
02:31AM 68.1546 161.1959 44° Northeast  Level Estimated
02:32AM 68.2539 161.4540 44° Northeast  Level Estimated
02:33AM 68.3528 161.7143 44° Northeast  Level Estimated
02:34AM 68.4512 161.9769 44° Northeast  Level Estimated
02:35AM 68.5493 162.2419 45° Northeast  Level Estimated
02:36AM 68.6470 162.5091 45° Northeast  Level Estimated
02:36AM 65.1980 170.6330 45° Northeast 519 597 31,000  Level FlightAware
02:36AM 65.2200 170.7480 65° Northeast 518 596 31,000  Level FlightAware
02:37AM 65.2670 170.9920 65° Northeast 519 597 31,000  Level FlightAware
02:38AM 65.3210 171.2810 66° East 522 601 31,000  Level FlightAware
02:38AM 65.3510 171.4470 67° East 522 601 31,000  Level FlightAware
02:39AM 65.4080 171.7580 66° East 523 602 31,000  Level FlightAware
02:40AM 65.4560 172.0390 68° East 523 602 31,000  Level FlightAware
02:41AM 65.4830 172.2440 72° East 524 603 31,000 120 Level FlightAware
02:41AM 65.5130 172.4780 73° East 526 605 31,200 960 Climbing FlightAware
02:42AM 65.5410 172.7090 74° East 523 602 32,400 1,200 Climbing FlightAware
02:43AM 65.5660 172.9120 73° East 512 589 33,000 360 Climbing FlightAware
02:44AM 65.6020 173.2130 74° East 512 589 33,000  Level FlightAware
02:45AM 65.6450 173.5720 74° East 506 582 33,000  Level FlightAware
02:45AM 65.6680 173.7730 74° East 506 582 33,000  Level FlightAware
02:46AM 65.6950 174.0040 74° East 507 583 33,000  Level FlightAware
02:47AM 65.7300 174.3240 75° East 515 593 33,000  Level FlightAware
02:48AM 65.7580 174.5770 75° East 516 594 33,000  Level FlightAware
02:48AM 65.7840 174.8170 75° East 517 595 33,000  Level FlightAware
02:50AM 65.8340 175.2830 75° East 518 596 33,000  Level FlightAware
02:51AM 65.8580 175.5240 76° East 520 598 33,000  Level FlightAware
02:51AM 65.8770 175.7050 76° East 520 598 33,000  Level FlightAware
02:52AM 65.9050 175.9860 76° East 520 598 33,000  Level FlightAware
02:53AM 65.9280 176.2270 77° East 519 597 33,000  Level FlightAware
02:54AM 65.9610 176.5690 77° East 520 598 33,000  Level FlightAware
02:54AM 65.9780 176.7510 77° East 517 595 33,000  Level FlightAware
02:55AM 66.0020 177.0150 77° East 517 595 33,000  Level FlightAware
02:56AM 66.0210 177.2260 77° East 517 595 33,000  Level FlightAware
02:56AM 66.0420 177.4750 78° East 516 594 33,000  Level FlightAware
02:57AM 66.0640 177.7230 78° East 510 587 33,000  Level FlightAware
02:58AM 66.0860 177.9900 78° East 511 588 33,000  Level FlightAware
02:58AM 66.1020 178.1820 78° East 511 588 33,000  Level FlightAware
02:59AM 66.1280 178.5110 79° East 512 589 33,000  Level FlightAware
03:00AM 66.1520 178.7880 78° East 512 589 33,000  Level FlightAware
03:01AM 66.1720 179.0220 78° East 512 589 33,000  Level FlightAware
03:02AM 66.1920 179.3390 81° East 508 585 33,000  Level FlightAware
03:02AM 66.2070 179.5500 80° East 506 582 33,000  Level FlightAware
03:04AM 66.2380 179.9880 80° East 506 582 33,000  Level FlightAware
03:04AM 66.2510 -179.8250 80° East 507 583 33,000  Level FlightAware
03:05AM 66.2750 -179.4630 80° East 506 582 33,000  Level FlightAware
03:06AM 66.2900 -179.2330 81° East 507 583 33,000  Level FlightAware
03:06AM 66.3020 -179.0530 81° East 510 587 33,000  Level FlightAware
03:07AM 66.3200 -178.7530 81° East 511 588 33,000  Level FlightAware
03:08AM 66.3340 -178.5260 81° East 510 587 33,000  Level FlightAware
03:09AM 66.3480 -178.2830 82° East 510 587 33,000  Level FlightAware
03:09AM 66.3620 -178.0480 81° East 511 588 33,000  Level FlightAware
03:10AM 66.3790 -177.7290 82° East 512 589 33,000  Level FlightAware
03:11AM 66.3850 -177.6130 83° East 512 589 33,000  Level FlightAware
03:11AM 66.4040 -177.2640 82° East 511 588 33,000  Level FlightAware
03:12AM 66.4120 -177.1020 83° East 509 586 33,000  Level FlightAware
03:13AM 66.4270 -176.7940 83° East 508 585 33,000  Level FlightAware
03:14AM 66.4400 -176.5200 83° East 510 587 33,000  Level FlightAware
03:15AM 66.4540 -176.1880 84° East 513 590 33,000  Level FlightAware
03:15AM 66.4630 -175.9930 83° East 512 589 33,000  Level FlightAware
03:16AM 66.4740 -175.7240 84° East 512 589 33,000  Level FlightAware
03:17AM 66.4850 -175.4640 84° East 513 590 33,000  Level FlightAware
03:17AM 66.4950 -175.1920 85° East 515 593 33,000  Level FlightAware
03:18AM 66.5080 -174.8270 85° East 514 592 33,000  Level FlightAware
03:19AM 66.5170 -174.5770 85° East 512 589 33,000  Level FlightAware
03:20AM 66.5250 -174.3360 85° East 513 590 33,000  Level FlightAware
03:21AM 66.5200 -174.4670 265° West 513 590 33,000  Level FlightAware
03:21AM 66.5280 -174.2340 85° East 513 590 33,000  Level FlightAware
03:22AM 66.5350 -174.0330 85° East 513 590 33,000  Level FlightAware
03:23AM 66.5420 -173.8310 85° East 513 590 33,000  Level FlightAware
03:23AM 66.5490 -173.6290 85° East 513 590 33,000  Level FlightAware
03:24AM 66.5560 -173.4270 85° East 513 590 33,000  Level FlightAware
03:25AM 66.5650 -173.1740 85° East 513 590 33,000  Level FlightAware
03:25AM 66.5720 -172.9720 85° East 513 590 33,000  Level FlightAware
03:26AM 66.5790 -172.7700 85° East 513 590 33,000  Level FlightAware
03:27AM 66.5860 -172.5670 85° East 513 590 33,000  Level FlightAware
03:27AM 66.5930 -172.3650 85° East 513 590 33,000  Level FlightAware
03:28AM 66.6020 -172.1120 85° East 513 590 33,000  Level FlightAware
03:29AM 66.6090 -171.9100 85° East 513 590 33,000  Level FlightAware
03:30AM 66.6160 -171.7070 85° East 513 590 33,000  Level FlightAware
03:30AM 66.6230 -171.5040 85° East 513 590 33,000  Level FlightAware
03:33AM 66.7478 -170.8207 65° Northeast  Level Estimated
03:34AM 66.8036 -170.5078 66° East  Level Estimated
03:35AM 66.8587 -170.1936 66° East  Level Estimated
03:36AM 66.9132 -169.8779 66° East  Level Estimated
03:36AM 66.6333 -168.5833 68° East 520 598 33,000  Level Anchorage Center
03:37AM 66.9671 -169.5608 66° East  Level Estimated
03:37AM 66.6500 -168.2167 83° East 520 598 33,000  Level Anchorage Center
03:38AM 67.0203 -169.2423 67° East  Level Estimated
03:38AM 66.6833 -167.8667 76° East 520 598 33,000  Level Anchorage Center
03:39AM 67.0729 -168.9224 67° East  Level Estimated
03:39AM 66.7000 -167.4833 84° East 530 610 33,000  Level Anchorage Center
03:40AM 67.1249 -168.6011 67° East  Level Estimated
03:40AM 66.7167 -167.1167 83° East 530 610 33,000  Level Anchorage Center
03:41AM 67.1762 -168.2785 68° East  Level Estimated
03:41AM 66.7333 -166.7500 83° East 520 598 33,000  Level Anchorage Center
03:43AM 66.7667 -166.0000 83° East 530 610 33,000  Level Anchorage Center
03:44AM 66.7833 -165.6333 83° East 520 598 33,000  Level Anchorage Center
03:45AM 66.8000 -165.2667 83° East 520 598 33,000  Level Anchorage Center
03:46AM 66.8167 -164.9000 83° East 510 587 33,000  Level Anchorage Center
03:47AM 66.8167 -164.5333 90° East 530 610 33,000  Level Anchorage Center
03:48AM 66.8333 -164.1667 83° East 520 598 33,000  Level Anchorage Center
03:49AM 66.8500 -163.8000 83° East 520 598 33,000  Level Anchorage Center
03:50AM 66.8500 -163.4333 90° East 530 610 33,000  Level Anchorage Center
03:51AM 66.8667 -163.0500 84° East 530 610 33,000  Level Anchorage Center
03:52AM 66.8667 -162.7000 90° East 530 610 33,000  Level Anchorage Center
03:53AM 66.9000 -162.3167 77° East 540 621 33,000  Level Anchorage Center
03:54AM 66.9333 -162.0000 75° East 510 587 33,000  Level Anchorage Center
03:55AM 66.9833 -161.6500 70° East 530 610 33,000  Level Anchorage Center
03:56AM 67.0167 -161.2833 77° East 520 598 33,000  Level Anchorage Center
03:57AM 67.0667 -160.9333 70° East 520 598 33,000  Level Anchorage Center
03:58AM 67.1000 -160.5667 77° East 520 598 33,000  Level Anchorage Center
03:59AM 67.1333 -160.2167 76° East 510 587 33,000  Level Anchorage Center
04:00AM 67.1833 -159.8500 70° East 520 598 33,000  Level Anchorage Center
04:01AM 67.2167 -159.4833 77° East 510 587 33,000  Level Anchorage Center
04:02AM 67.2500 -159.1333 76° East 520 598 33,000  Level Anchorage Center
04:03AM 67.2833 -158.7667 77° East 520 598 33,000  Level Anchorage Center
04:04AM 67.3167 -158.4000 77° East 530 610 33,000  Level Anchorage Center
04:05AM 67.3500 -158.0167 77° East 520 598 33,000  Level Anchorage Center
04:06AM 67.3833 -157.6667 76° East 520 598 33,000  Level Anchorage Center
04:07AM 67.4167 -157.2667 78° East 520 598 33,000  Level Anchorage Center
04:08AM 67.4333 -156.9000 83° East 520 598 33,000  Level Anchorage Center
04:09AM 67.4667 -156.5333 76° East 520 598 33,000  Level Anchorage Center
04:10AM 67.5000 -156.1500 77° East 520 598 33,000  Level Anchorage Center
04:11AM 67.5333 -155.7833 76° East 510 587 33,000  Level Anchorage Center
04:12AM 67.5500 -155.4167 83° East 520 598 33,000  Level Anchorage Center
04:13AM 67.5833 -155.0500 76° East 510 587 33,000  Level Anchorage Center
04:14AM 67.6000 -154.6667 83° East 520 598 33,000  Level Anchorage Center
04:15AM 67.6333 -154.3000 76° East 510 587 33,000  Level Anchorage Center
04:16AM 67.6500 -153.9333 83° East 510 587 33,000  Level Anchorage Center
04:17AM 67.6833 -153.5667 76° East 510 587 33,000  Level Anchorage Center
04:18AM 67.7000 -153.1833 83° East 520 598 33,000  Level Anchorage Center
04:19AM 67.7167 -152.8167 83° East 510 587 33,000  Level Anchorage Center
04:20AM 67.7333 -152.4500 83° East 520 598 33,000  Level Anchorage Center
04:21AM 67.7500 -152.0667 83° East 510 587 33,000  Level Anchorage Center
04:22AM 67.7667 -151.7000 83° East 510 587 33,000  Level Anchorage Center
04:23AM 67.8000 -151.3167 77° East 510 587 33,000  Level Anchorage Center
04:24AM 67.8167 -150.9500 83° East 520 598 33,000  Level Anchorage Center
04:25AM 67.8167 -150.5833 90° East 500 575 33,000  Level Anchorage Center
04:26AM 67.8333 -150.2833 81° East 510 587 33,000  Level Anchorage Center
04:27AM 67.8500 -149.9000 83° East 510 587 33,000  Level Anchorage Center
04:28AM 67.8667 -149.4667 84° East 510 587 33,000  Level Anchorage Center
04:29AM 67.8833 -149.1000 83° East 500 575 33,000  Level Anchorage Center
04:30AM 67.8833 -148.7167 90° East 500 575 33,000  Level Anchorage Center
04:31AM 67.9000 -148.3500 83° East 510 587 33,000  Level Anchorage Center
04:32AM 67.9000 -147.9833 90° East 500 575 33,000  Level Anchorage Center
04:33AM 67.9167 -147.6000 83° East 510 587 33,000  Level Anchorage Center
04:34AM 67.9167 -147.2333 90° East 500 575 33,000  Level Anchorage Center
04:35AM 67.9333 -146.8500 83° East 510 587 33,000  Level Anchorage Center
04:36AM 67.9333 -146.4833 90° East 510 587 33,000  Level Anchorage Center
04:37AM 67.9333 -146.1000 90° East 510 587 33,000  Level Anchorage Center
04:38AM 67.9500 -145.7167 83° East 510 587 33,000  Level Anchorage Center
04:39AM 67.9500 -145.3500 90° East 510 587 33,000  Level Anchorage Center
04:40AM 67.9500 -145.0500 90° East 510 587 33,000  Level Anchorage Center
04:41AM 67.9500 -144.6667 90° East 510 587 33,000  Level Anchorage Center
04:42AM 67.9500 -144.3000 90° East 510 587 33,000  Level Anchorage Center
04:43AM 67.9500 -143.9167 90° East 510 587 33,000  Level Anchorage Center
04:44AM 67.9500 -143.5333 90° East 510 587 33,000  Level Anchorage Center
04:45AM 67.9500 -143.1667 90° East 510 587 33,000  Level Anchorage Center
04:46AM 67.9500 -142.7833 90° East 510 587 33,000  Level Anchorage Center
04:47AM 67.9500 -142.4000 90° East 500 575 33,000  Level Anchorage Center
04:48AM 67.9500 -142.0333 90° East 510 587 33,000  Level Anchorage Center
04:49AM 67.9333 -141.6500 96° East 520 598 33,000  Level Anchorage Center
04:51AM 67.9272 -141.1505 92° East  Level Estimated
04:58AM 67.8728 -138.6287 92° East  Level Estimated
04:59AM 67.8619 -138.2695 94° East  Level Estimated
05:00AM 67.8502 -137.9107 95° East  Level Estimated
05:01AM 67.8377 -137.5523 95° East  Level Estimated
05:02AM 67.8244 -137.1942 95° East  Level Estimated
05:03AM 67.8104 -136.8366 96° East  Level Estimated
05:04AM 67.7956 -136.4794 96° East  Level Estimated
05:05AM 67.7800 -136.1227 96° East  Level Estimated
05:06AM 67.7636 -135.7665 97° East  Level Estimated
05:07AM 67.7464 -135.4108 97° East  Level Estimated
05:08AM 67.7285 -135.0556 97° East  Level Estimated
05:09AM 67.7098 -134.7010 98° East  Level Estimated
05:10AM 67.6903 -134.3470 98° East  Level Estimated
05:11AM 67.6701 -133.9935 98° East  Level Estimated
05:12AM 67.6490 -133.6407 99° East  Level Estimated
05:13AM 67.6273 -133.2885 99° East  Level Estimated
05:14AM 67.6048 -132.9369 99° East  Level Estimated
05:15AM 67.5815 -132.5861 100° East  Level Estimated
05:16AM 67.5574 -132.2359 100° East  Level Estimated
05:17AM 67.5326 -131.8865 100° East  Level Estimated
05:18AM 67.5071 -131.5378 101° East  Level Estimated
05:19AM 67.4808 -131.1899 101° East  Level Estimated
05:20AM 67.4537 -130.8427 101° East  Level Estimated
05:21AM 67.4259 -130.4964 102° East  Level Estimated
05:22AM 67.3974 -130.1508 102° East  Level Estimated
05:23AM 67.3682 -129.8062 102° East  Level Estimated
05:24AM 67.3382 -129.4623 103° East  Level Estimated
05:25AM 67.3074 -129.1194 103° East  Level Estimated
05:26AM 67.2760 -128.7773 103° East  Level Estimated
05:27AM 67.2438 -128.4361 104° East  Level Estimated
05:28AM 67.2109 -128.0959 104° East  Level Estimated
05:29AM 67.1773 -127.7565 104° East  Level Estimated
05:30AM 67.1429 -127.4182 104° East  Level Estimated
05:31AM 67.1078 -127.0808 105° East  Level Estimated
05:32AM 67.0721 -126.7444 105° East  Level Estimated
05:33AM 67.0356 -126.4090 105° East  Level Estimated
05:34AM 66.9984 -126.0746 106° East  Level Estimated
05:35AM 66.9606 -125.7413 106° East  Level Estimated
05:36AM 66.9220 -125.4090 106° East  Level Estimated
05:37AM 66.8827 -125.0777 107° East  Level Estimated
05:38AM 66.8428 -124.7475 107° East  Level Estimated
05:39AM 66.8021 -124.4184 107° East  Level Estimated
05:40AM 66.7608 -124.0904 108° East  Level Estimated
05:41AM 66.7188 -123.7636 108° East  Level Estimated
05:42AM 66.6761 -123.4378 108° East  Level Estimated
05:43AM 66.6328 -123.1132 108° East  Level Estimated
05:44AM 66.5888 -122.7897 109° East  Level Estimated
05:45AM 66.5441 -122.4673 109° East  Level Estimated
05:46AM 66.4988 -122.1462 109° East  Level Estimated
05:47AM 66.4528 -121.8262 110° East  Level Estimated
05:48AM 66.4061 -121.5073 110° East  Level Estimated
05:49AM 66.3588 -121.1897 110° East  Level Estimated
05:50AM 66.3109 -120.8733 111° Southeast  Level Estimated
05:51AM 66.2623 -120.5581 111° Southeast  Level Estimated
05:52AM 66.2131 -120.2441 111° Southeast  Level Estimated
05:53AM 66.1633 -119.9314 111° Southeast  Level Estimated
05:54AM 66.1128 -119.6199 112° Southeast  Level Estimated
05:55AM 66.0617 -119.3096 112° Southeast  Level Estimated
05:56AM 66.0100 -119.0006 112° Southeast  Level Estimated
05:57AM 65.9576 -118.6928 113° Southeast  Level Estimated
05:58AM 65.9047 -118.3863 113° Southeast  Level Estimated
05:59AM 65.8511 -118.0811 113° Southeast  Level Estimated
06:00AM 65.7970 -117.7772 113° Southeast  Level Estimated
06:01AM 65.7422 -117.4745 114° Southeast  Level Estimated
06:02AM 65.6869 -117.1731 114° Southeast  Level Estimated
06:03AM 65.6309 -116.8731 114° Southeast  Level Estimated
06:04AM 65.5744 -116.5743 114° Southeast  Level Estimated
06:05AM 65.5172 -116.2768 115° Southeast  Level Estimated
06:06AM 65.4595 -115.9806 115° Southeast  Level Estimated
06:07AM 65.4013 -115.6858 115° Southeast  Level Estimated
06:08AM 65.3424 -115.3922 116° Southeast  Level Estimated
06:09AM 65.2830 -115.1000 116° Southeast  Level Estimated
06:10AM 65.2230 -114.8091 116° Southeast  Level Estimated
06:11AM 65.1625 -114.5195 116° Southeast  Level Estimated
06:12AM 65.1014 -114.2312 117° Southeast  Level Estimated
06:13AM 65.0397 -113.9443 117° Southeast  Level Estimated
06:14AM 64.9775 -113.6587 117° Southeast  Level Estimated
06:15AM 64.9148 -113.3744 117° Southeast  Level Estimated
06:16AM 64.8515 -113.0914 118° Southeast  Level Estimated
06:17AM 64.7877 -112.8098 118° Southeast  Level Estimated
06:18AM 64.7234 -112.5295 118° Southeast  Level Estimated
06:19AM 64.6585 -112.2506 118° Southeast  Level Estimated
06:20AM 64.5931 -111.9730 119° Southeast  Level Estimated
06:21AM 64.5272 -111.6967 119° Southeast  Level Estimated
06:22AM 64.4607 -111.4218 119° Southeast  Level Estimated
06:23AM 64.3938 -111.1482 119° Southeast  Level Estimated
06:24AM 64.3264 -110.8759 120° Southeast  Level Estimated
06:25AM 64.2584 -110.6050 120° Southeast  Level Estimated
06:26AM 64.1900 -110.3354 120° Southeast  Level Estimated
06:27AM 64.1210 -110.0671 120° Southeast  Level Estimated
06:28AM 64.0516 -109.8002 121° Southeast  Level Estimated
06:29AM 63.9817 -109.5346 121° Southeast  Level Estimated
06:30AM 63.9113 -109.2703 121° Southeast  Level Estimated
06:31AM 63.8404 -109.0074 121° Southeast  Level Estimated
06:32AM 63.7690 -108.7458 122° Southeast  Level Estimated
06:33AM 63.6972 -108.4855 122° Southeast  Level Estimated
06:34AM 63.6249 -108.2265 122° Southeast  Level Estimated
06:35AM 63.5522 -107.9689 122° Southeast  Level Estimated
06:36AM 63.4789 -107.7126 123° Southeast  Level Estimated
06:37AM 63.4053 -107.4575 123° Southeast  Level Estimated
06:38AM 63.3312 -107.2038 123° Southeast  Level Estimated
06:39AM 63.2566 -106.9514 123° Southeast  Level Estimated
06:40AM 63.1816 -106.7003 123° Southeast  Level Estimated
06:41AM 63.1061 -106.4505 124° Southeast  Level Estimated
06:42AM 63.0302 -106.2020 124° Southeast  Level Estimated
06:43AM 62.9539 -105.9548 124° Southeast  Level Estimated
06:44AM 62.8771 -105.7089 124° Southeast  Level Estimated
06:45AM 62.7999 -105.4643 125° Southeast  Level Estimated
06:46AM 62.7223 -105.2209 125° Southeast  Level Estimated
06:47AM 62.6443 -104.9789 125° Southeast  Level Estimated
06:48AM 62.5658 -104.7381 125° Southeast  Level Estimated
06:49AM 62.4870 -104.4985 125° Southeast  Level Estimated
06:50AM 62.4077 -104.2603 126° Southeast  Level Estimated
06:51AM 62.3281 -104.0233 126° Southeast  Level Estimated
06:52AM 62.2480 -103.7875 126° Southeast  Level Estimated
06:53AM 62.1675 -103.5530 126° Southeast  Level Estimated
06:54AM 62.0867 -103.3198 126° Southeast  Level Estimated
06:55AM 62.0054 -103.0878 127° Southeast  Level Estimated
06:56AM 61.9238 -102.8570 127° Southeast  Level Estimated
06:57AM 61.8418 -102.6275 127° Southeast  Level Estimated
06:58AM 61.7594 -102.3992 127° Southeast  Level Estimated
06:59AM 61.6766 -102.1721 127° Southeast  Level Estimated
07:00AM 61.5934 -101.9463 128° Southeast  Level Estimated
07:01AM 61.5099 -101.7216 128° Southeast  Level Estimated
07:02AM 61.4260 -101.4982 128° Southeast  Level Estimated
07:03AM 61.3418 -101.2759 128° Southeast  Level Estimated
07:04AM 61.2572 -101.0549 128° Southeast  Level Estimated
07:05AM 61.1722 -100.8350 129° Southeast  Level Estimated
07:06AM 61.0869 -100.6164 129° Southeast  Level Estimated
07:07AM 61.0012 -100.3989 129° Southeast  Level Estimated
07:08AM 60.9152 -100.1825 129° Southeast  Level Estimated
07:09AM 60.8288 -99.9674 129° Southeast  Level Estimated
07:10AM 60.7421 -99.7534 130° Southeast  Level Estimated
07:11AM 60.6550 -99.5406 130° Southeast  Level Estimated
07:12AM 60.5676 -99.3289 130° Southeast  Level Estimated
07:13AM 60.4799 -99.1183 130° Southeast  Level Estimated
07:14AM 60.3919 -98.9089 130° Southeast  Level Estimated
07:15AM 60.3035 -98.7006 131° Southeast  Level Estimated
07:16AM 60.2148 -98.4935 131° Southeast  Level Estimated
07:17AM 60.1258 -98.2874 131° Southeast  Level Estimated
07:18AM 60.0364 -98.0825 131° Southeast  Level Estimated
07:19AM 59.9468 -97.8787 131° Southeast  Level Estimated
07:20AM 59.8568 -97.6760 131° Southeast  Level Estimated
07:21AM 59.7665 -97.4744 132° Southeast  Level Estimated
07:22AM 59.6759 -97.2739 132° Southeast  Level Estimated
07:23AM 59.5850 -97.0744 132° Southeast  Level Estimated
07:24AM 59.4939 -96.8761 132° Southeast  Level Estimated
07:25AM 59.4024 -96.6787 132° Southeast  Level Estimated
07:26AM 59.3106 -96.4825 132° Southeast  Level Estimated
07:27AM 59.2185 -96.2874 133° Southeast  Level Estimated
07:28AM 59.1261 -96.0932 133° Southeast  Level Estimated
07:29AM 59.0335 -95.9001 133° Southeast  Level Estimated
07:30AM 58.9405 -95.7081 133° Southeast  Level Estimated
07:31AM 58.8473 -95.5171 133° Southeast  Level Estimated
07:32AM 58.7538 -95.3271 133° Southeast  Level Estimated
07:33AM 58.6600 -95.1382 134° Southeast  Level Estimated
07:34AM 58.5659 -94.9502 134° Southeast  Level Estimated
07:35AM 58.4716 -94.7633 134° Southeast  Level Estimated
07:36AM 58.3770 -94.5774 134° Southeast  Level Estimated
07:37AM 58.2821 -94.3924 134° Southeast  Level Estimated
07:38AM 58.1870 -94.2085 134° Southeast  Level Estimated
07:39AM 58.0916 -94.0256 135° Southeast  Level Estimated
07:40AM 57.9959 -93.8436 135° Southeast  Level Estimated
07:41AM 57.9000 -93.6626 135° Southeast  Level Estimated
07:42AM 57.8038 -93.4825 135° Southeast  Level Estimated
07:43AM 57.7074 -93.3034 135° Southeast  Level Estimated
07:44AM 57.6107 -93.1253 135° Southeast  Level Estimated
07:45AM 57.5138 -92.9481 135° Southeast  Level Estimated
07:46AM 57.4166 -92.7718 136° Southeast  Level Estimated
07:47AM 57.3192 -92.5965 136° Southeast  Level Estimated
07:48AM 57.2215 -92.4221 136° Southeast  Level Estimated
07:49AM 57.1236 -92.2487 136° Southeast  Level Estimated
07:50AM 57.0255 -92.0761 136° Southeast  Level Estimated
07:51AM 56.9271 -91.9045 136° Southeast  Level Estimated
07:52AM 56.8285 -91.7337 137° Southeast  Level Estimated
07:53AM 56.7297 -91.5639 137° Southeast  Level Estimated
07:54AM 56.6306 -91.3949 137° Southeast  Level Estimated
07:55AM 56.5313 -91.2269 137° Southeast  Level Estimated
07:56AM 56.4318 -91.0597 137° Southeast  Level Estimated
07:57AM 56.3320 -90.8934 137° Southeast  Level Estimated
07:58AM 56.2321 -90.7280 137° Southeast  Level Estimated
07:59AM 56.1319 -90.5634 137° Southeast  Level Estimated
08:00AM 56.0314 -90.3997 138° Southeast  Level Estimated
08:01AM 55.9308 -90.2368 138° Southeast  Level Estimated
08:02AM 55.8300 -90.0748 138° Southeast  Level Estimated
08:03AM 55.7289 -89.9136 138° Southeast  Level Estimated
08:04AM 55.6277 -89.7532 138° Southeast  Level Estimated
08:05AM 55.5262 -89.5937 138° Southeast  Level Estimated
08:06AM 55.4245 -89.4350 138° Southeast  Level Estimated
08:07AM 55.3227 -89.2771 139° Southeast  Level Estimated
08:08AM 55.2206 -89.1200 139° Southeast  Level Estimated
08:09AM 55.1183 -88.9637 139° Southeast  Level Estimated
08:10AM 55.0158 -88.8083 139° Southeast  Level Estimated
08:11AM 54.9131 -88.6536 139° Southeast  Level Estimated
08:12AM 54.8103 -88.4997 139° Southeast  Level Estimated
08:13AM 54.7072 -88.3466 139° Southeast  Level Estimated
08:14AM 54.6039 -88.1943 139° Southeast  Level Estimated
08:15AM 54.5005 -88.0427 140° Southeast  Level Estimated
08:16AM 54.3968 -87.8919 140° Southeast  Level Estimated
08:17AM 54.2930 -87.7419 140° Southeast  Level Estimated
08:18AM 54.1890 -87.5926 140° Southeast  Level Estimated
08:19AM 54.0848 -87.4441 140° Southeast  Level Estimated
08:19AM 56.0333 -83.7333 141° Southeast 490 564 35,000  Level Edmonton Center
08:20AM 53.9804 -87.2963 140° Southeast  Level Estimated
08:20AM 56.0167 -83.8000 246° West 480 552 35,000  Level Montreal Center
08:20AM 55.9500 -83.6000 121° Southeast 470 541 35,000  Level Edmonton Center
08:21AM 53.8759 -87.1492 140° Southeast  Level Estimated
08:21AM 55.9000 -83.6500 209° Southwest 470 541 35,000  Level Montreal Center
08:22AM 53.7711 -87.0029 140° Southeast  Level Estimated
08:22AM 55.7833 -83.5167 147° Southeast 470 541 35,000  Level Montreal Center
08:22AM 55.7167 -83.3333 123° Southeast 480 552 35,000  Level Edmonton Center
08:23AM 53.6662 -86.8573 141° Southeast  Level Estimated
08:23AM 55.7000 -83.3833 239° Southwest 470 541 35,000  Level Montreal Center
08:24AM 53.5611 -86.7125 141° Southeast  Level Estimated
08:24AM 55.5667 -83.2333 148° Southeast 480 552 35,000  Level Montreal Center
08:24AM 55.5167 -83.0333 114° Southeast 480 552 35,000  Level Edmonton Center
08:25AM 53.4559 -86.5683 141° Southeast  Level Estimated
08:25AM 55.4167 -82.9167 146° Southeast 480 552 35,000  Level Edmonton Center
08:26AM 55.3667 -82.9667 210° Southwest 480 552 35,000  Level Montreal Center
08:26AM 55.3000 -82.7667 120° Southeast 480 552 35,000  Level Edmonton Center
08:27AM 55.2000 -82.6500 146° Southeast 480 552 35,000  Level Edmonton Center
08:28AM 55.0833 -82.5000 144° Southeast 480 552 35,000  Level Edmonton Center
08:29AM 55.0333 -82.5500 210° Southwest 480 552 35,000  Level Montreal Center
08:30AM 54.9167 -82.3833 141° Southeast 480 552 35,000  Level Montreal Center
08:30AM 54.8667 -82.2333 120° Southeast 490 564 35,000  Level Edmonton Center
08:31AM 54.7500 -82.0833 143° Southeast 480 552 35,000  Level Edmonton Center
08:32AM 54.6333 -81.9333 143° Southeast 480 552 35,000  Level Edmonton Center
08:33AM 54.6000 -81.9833 221° Southwest 480 552 35,000  Level Montreal Center
08:33AM 54.5333 -81.8167 125° Southeast 480 552 35,000  Level Edmonton Center
08:34AM 54.4167 -81.6667 143° Southeast 480 552 35,000  Level Edmonton Center
08:35AM 54.3167 -81.5500 146° Southeast 480 552 35,000  Level Edmonton Center
08:36AM 54.2000 -81.4167 146° Southeast 480 552 35,000  Level Edmonton Center
08:37AM 54.1000 -81.2833 142° Southeast 480 552 35,000  Level Edmonton Center
08:38AM 53.9833 -81.1833 153° Southeast 480 552 35,000  Level Edmonton Center
08:39AM 53.8667 -81.0333 143° Southeast 480 552 35,000  Level Edmonton Center
08:40AM 53.8167 -81.0667 201° Southwest 480 552 35,000  Level Montreal Center
08:41AM 53.7333 -80.9500 140° Southeast 470 541 35,000  Level Montreal Center
08:41AM 53.6500 -80.7833 130° Southeast 480 552 35,000  Level Edmonton Center
08:42AM 53.6167 -80.8167 211° Southwest 470 541 35,000  Level Montreal Center
08:43AM 53.5000 -80.7000 149° Southeast 470 541 35,000  Level Montreal Center
08:43AM 53.4333 -80.5333 124° Southeast 480 552 35,000  Level Edmonton Center
08:44AM 53.3167 -80.4000 146° Southeast 470 541 35,000  Level Edmonton Center
08:45AM 53.2000 -80.2833 149° Southeast 470 541 35,000  Level Edmonton Center
08:46AM 53.0833 -80.1833 153° Southeast 470 541 35,000  Level Edmonton Center
08:47AM 53.0500 -80.2167 211° Southwest 470 541 35,000  Level Montreal Center
08:48AM 52.9333 -80.1333 157° South 470 541 35,000  Level Montreal Center
08:49AM 52.8167 -80.0333 153° Southeast 470 541 35,000  Level Montreal Center
08:50AM 52.7000 -79.9167 149° Southeast 470 541 35,000  Level Montreal Center
08:51AM 52.5833 -79.8167 152° Southeast 470 541 35,000  Level Montreal Center
08:52AM 52.4667 -79.7167 152° Southeast 480 552 35,000  Level Montreal Center
08:53AM 52.3667 -79.6000 145° Southeast 470 541 35,000  Level Montreal Center
08:54AM 52.2500 -79.5167 156° South 480 552 35,000  Level Montreal Center
08:55AM 52.1333 -79.4167 152° Southeast 470 541 35,000  Level Montreal Center
08:56AM 52.0000 -79.3000 152° Southeast 480 552 35,000  Level Montreal Center
08:57AM 51.8833 -79.2167 156° South 480 552 35,000  Level Montreal Center
08:58AM 51.7500 -79.1000 152° Southeast 480 552 35,000  Level Montreal Center
08:59AM 51.6333 -79.0000 152° Southeast 480 552 35,000  Level Montreal Center
09:00AM 51.5167 -78.8833 148° Southeast 480 552 35,000  Level Montreal Center
09:01AM 51.4000 -78.8000 156° South 480 552 35,000  Level Montreal Center
09:02AM 51.2833 -78.7167 156° South 480 552 35,000  Level Montreal Center
09:03AM 51.1500 -78.6000 151° Southeast 480 552 35,000  Level Montreal Center
09:04AM 51.0333 -78.5000 152° Southeast 480 552 35,000  Level Montreal Center
09:05AM 50.9167 -78.4167 156° South 480 552 35,000  Level Montreal Center
09:06AM 50.8167 -78.3167 148° Southeast 480 552 35,000  Level Montreal Center
09:07AM 50.6833 -78.2167 155° Southeast 480 552 35,000  Level Montreal Center
09:08AM 50.5667 -78.1167 151° Southeast 490 564 35,000  Level Montreal Center
09:09AM 50.4500 -78.0333 156° South 490 564 35,000  Level Montreal Center
09:10AM 50.3333 -77.9500 155° Southeast 490 564 35,000  Level Montreal Center
09:11AM 50.2000 -77.8333 151° Southeast 490 564 35,000  Level Montreal Center
09:12AM 50.0833 -77.7500 155° Southeast 480 552 35,000  Level Montreal Center
09:13AM 49.9667 -77.6333 147° Southeast 490 564 35,000  Level Montreal Center
09:14AM 49.8333 -77.5500 158° South 490 564 35,000  Level Montreal Center
09:15AM 49.7167 -77.4500 151° Southeast 490 564 35,000  Level Montreal Center
09:16AM 49.5833 -77.3667 158° South 500 575 35,000  Level Montreal Center
09:17AM 49.4667 -77.2667 151° Southeast 470 541 35,000  Level Montreal Center
09:18AM 49.3333 -77.1500 150° Southeast 540 621 35,000  Level Montreal Center
09:19AM 49.2167 -77.0667 155° Southeast 470 541 35,000  Level Montreal Center
09:20AM 49.0833 -76.9667 154° Southeast 500 575 35,000  Level Montreal Center
09:21AM 48.9667 -76.8833 155° Southeast 490 564 35,000  Level Montreal Center
09:22AM 48.8333 -76.7833 154° Southeast 490 564 35,000  Level Montreal Center
09:23AM 48.7167 -76.7000 155° Southeast 490 564 35,000  Level Montreal Center
09:24AM 48.6000 -76.6333 159° South 500 575 35,000  Level Montreal Center
09:25AM 48.4667 -76.5167 150° Southeast 500 575 35,000  Level Montreal Center
09:26AM 48.3500 -76.4500 159° South 500 575 35,000  Level Montreal Center
09:27AM 48.2000 -76.3667 160° South 500 575 35,000  Level Montreal Center
09:28AM 48.0833 -76.3000 159° South 500 575 35,000  Level Montreal Center
09:29AM 47.9167 -76.2167 161° South 500 575 35,000  Level Montreal Center
09:35AM 47.1750 -75.8370 161° South 513 590 35,000  Level FlightAware
09:36AM 46.9480 -75.7240 161° South 511 588 35,000  Level FlightAware
09:37AM 46.8590 -75.6800 161° South 510 587 35,000  Level FlightAware
09:38AM 46.7580 -75.6300 161° South 511 588 35,000  Level FlightAware
09:38AM 46.6660 -75.5850 161° South 511 588 35,000  Level FlightAware
09:39AM 46.5790 -75.5430 162° South 512 589 35,000  Level FlightAware
09:40AM 46.4780 -75.4930 161° South 513 590 35,000  Level FlightAware
09:40AM 46.3890 -75.4500 162° South 514 592 35,000  Level FlightAware
09:41AM 46.3070 -75.4110 162° South 515 593 35,000  Level FlightAware
09:42AM 46.2080 -75.3630 161° South 516 594 35,000  Level FlightAware
09:42AM 46.1160 -75.3190 162° South 517 595 35,000  Level FlightAware
09:43AM 46.0270 -75.2770 162° South 518 596 35,000  Level FlightAware
09:44AM 45.9120 -75.2220 162° South 519 597 35,000  Level FlightAware
09:44AM 45.8430 -75.1890 162° South 519 597 35,000  Level FlightAware
09:45AM 45.7660 -75.1530 162° South 519 597 35,000  Level FlightAware
09:46AM 45.6850 -75.1140 161° South 518 596 35,000  Level FlightAware
09:46AM 45.5930 -75.0710 162° South 518 596 35,000  Level FlightAware
09:47AM 45.5020 -75.0290 162° South 520 598 35,000  Level FlightAware
09:48AM 45.4100 -74.9860 162° South 520 598 35,000  Level FlightAware
09:48AM 45.3190 -74.9430 162° South 520 598 35,000  Level FlightAware
09:49AM 45.2130 -74.8950 162° South 521 600 35,000  Level FlightAware
09:50AM 45.1230 -74.8530 162° South 521 600 35,000  Level FlightAware
09:50AM 45.0290 -74.8100 162° South 521 600 35,000  Level FlightAware
09:51AM 44.9510 -74.7740 162° South 521 600 35,000  Level FlightAware
09:52AM 44.8610 -74.7330 162° South 520 598 35,000  Level FlightAware
09:52AM 44.7700 -74.6910 162° South 521 600 35,000  Level FlightAware
09:53AM 44.6640 -74.6430 162° South 523 602 35,000  Level FlightAware
09:54AM 44.5730 -74.6020 162° South 524 603 35,000  Level FlightAware
09:54AM 44.4710 -74.5560 162° South 523 602 35,000  Level FlightAware
09:55AM 44.3780 -74.5140 162° South 521 600 35,000  Level FlightAware
09:56AM 44.2880 -74.4740 162° South 519 597 35,000  Level FlightAware
09:56AM 44.1870 -74.4290 162° South 517 595 35,000  Level FlightAware
09:57AM 44.1050 -74.3920 162° South 518 596 35,000  Level FlightAware
09:58AM 44.0150 -74.3530 163° South 518 596 35,000  Level FlightAware
09:59AM 43.9010 -74.3020 162° South 519 597 35,000  Level FlightAware
09:59AM 43.8010 -74.2580 162° South 519 597 35,000  Level FlightAware
10:00AM 43.7110 -74.2180 162° South 513 590 35,000  Level FlightAware
10:01AM 43.5980 -74.1690 163° South 513 590 35,000  Level FlightAware
10:01AM 43.5070 -74.1300 163° South 515 593 35,000  Level FlightAware
10:02AM 43.4160 -74.0900 162° South 517 595 35,000  Level FlightAware
10:03AM 43.3150 -74.0460 162° South 519 597 35,000  Level FlightAware
10:03AM 43.2460 -74.0160 162° South 520 598 35,000  Level FlightAware
10:04AM 43.1230 -73.9640 163° South 516 594 35,000  Level FlightAware
10:05AM 43.0350 -73.9260 162° South 514 592 35,000  Level FlightAware
10:06AM 42.9310 -73.8810 162° South 512 589 35,000  Level FlightAware
10:06AM 42.8590 -73.8500 162° South 506 582 35,000  Level FlightAware
10:07AM 42.7630 -73.8130 164° South 492 566 35,000  Level FlightAware
10:08AM 42.6750 -73.8040 176° South 475 547 35,000 -840 Level FlightAware
10:08AM 42.5870 -73.8050 180° South 475 547 33,900 -1,200 Descending FlightAware
10:09AM 42.4950 -73.8060 180° South 473 544 33,300 -1,920 Descending FlightAware
10:10AM 42.4170 -73.8090 182° South 476 548 31,400 -1,380 Descending FlightAware
10:10AM 42.3230 -73.8120 181° South 476 548 31,400  Level FlightAware
10:11AM 42.2670 -73.8130 181° South 476 548 31,400  Level FlightAware
10:12AM 42.1740 -73.8150 181° South 476 548 31,400 -2,400 Level FlightAware
10:12AM 42.0580 -73.8150 180° South 457 526 28,000 -3,180 Descending FlightAware
10:13AM 41.9903 -73.8167 181° South 456 525 28,000 -240 Level FlightAware ADS-B
10:13AM 41.9208 -73.8218 183° South 451 519 27,800 -1,380 Descending FlightAware ADS-B
10:14AM 41.8205 -73.8538 193° South 416 479 26,100 -2,100 Descending FlightAware ADS-B
10:15AM 41.7662 -73.8811 201° Southwest 412 474 24,900 -2,280 Descending FlightAware ADS-B
10:15AM 41.7644 -73.8820 200° South 416 479 24,900 -2,040 Level FlightAware ADS-B
10:15AM 41.7128 -73.9078 200° South 406 467 23,900 -2,040 Descending FlightAware ADS-B
10:16AM 41.6550 -73.9360 200° South 398 458 22,800 -2,040 Descending FlightAware
10:16AM 41.6193 -73.9528 199° South 410 472 22,100 -1,920 Descending FlightAware ADS-B
10:17AM 41.5653 -73.9784 200° South 386 444 21,200 -1,860 Descending FlightAware ADS-B
10:17AM 41.5121 -74.0035 199° South 383 441 20,200 -960 Descending FlightAware ADS-B
10:18AM 41.4392 -74.0381 200° South 384 442 20,000 -180 Descending FlightAware ADS-B
10:18AM 41.3932 -74.0616 201° Southwest 376 433 20,000  Level FlightAware ADS-B
10:19AM 41.3682 -74.0789 207° Southwest 368 423 20,000  Level FlightAware ADS-B
10:19AM 41.3210 -74.1180 212° Southwest 364 419 20,000  Level FlightAware ADS-B
10:20AM 41.2757 -74.1572 213° Southwest 362 417 20,000  Level FlightAware ADS-B
10:20AM 41.2565 -74.1736 213° Southwest 348 400 20,000  Level FlightAware ADS-B
10:20AM 41.2336 -74.1932 213° Southwest 336 387 20,000  Level FlightAware ADS-B
10:20AM 41.2161 -74.2082 213° Southwest 335 386 20,000 -420 Level FlightAware ADS-B
10:21AM 41.1943 -74.2269 213° Southwest 333 383 19,800 -960 Descending FlightAware ADS-B
10:21AM 41.1584 -74.2575 213° Southwest 335 386 19,300 -960 Descending FlightAware ADS-B
10:21AM 41.1437 -74.2676 207° Southwest 340 391 19,200 -960 Descending FlightAware ADS-B
10:22AM 41.1313 -74.2741 202° Southwest 344 396 19,000 -780 Descending FlightAware ADS-B
10:22AM 41.1196 -74.2784 195° South 347 399 19,000  Level FlightAware ADS-B
10:22AM 41.1056 -74.2813 189° South 349 402 19,000  Level FlightAware ADS-B
10:22AM 41.1014 -74.2817 184° South 349 402 19,000  Level FlightAware ADS-B
10:22AM 41.0864 -74.2815 179° South 353 406 19,000  Level FlightAware ADS-B
10:22AM 41.0806 -74.2806 173° South 354 407 19,000  Level FlightAware ADS-B
10:22AM 41.0743 -74.2793 171° South 359 413 19,000  Level FlightAware ADS-B
10:22AM 41.0659 -74.2767 167° South 364 419 19,000  Level FlightAware ADS-B
10:22AM 41.0507 -74.2695 160° South 374 430 19,000  Level FlightAware ADS-B
10:23AM 41.0278 -74.2512 149° Southeast 387 445 19,000  Level FlightAware ADS-B
10:23AM 40.9854 -74.2076 142° Southeast 387 445 19,000  Level FlightAware ADS-B
10:24AM 40.9427 -74.1632 142° Southeast 387 445 19,000  Level FlightAware ADS-B
10:24AM 40.9254 -74.1431 139° Southeast 392 451 19,000  Level FlightAware ADS-B
10:24AM 40.9208 -74.1370 135° Southeast 390 449 19,000  Level FlightAware ADS-B
10:24AM 40.9055 -74.1182 137° Southeast 388 447 19,000  Level FlightAware ADS-B
10:24AM 40.9012 -74.1141 144° Southeast 384 442 19,000  Level FlightAware ADS-B
10:24AM 40.8980 -74.1113 147° Southeast 381 438 19,000  Level FlightAware ADS-B
10:24AM 40.8840 -74.1012 151° Southeast 373 429 19,000  Level FlightAware ADS-B
10:25AM 40.8536 -74.0829 156° South 372 428 19,000  Level FlightAware ADS-B
10:25AM 40.8366 -74.0729 156° South 374 430 19,000 -600 Level FlightAware ADS-B
10:25AM 40.8061 -74.0546 156° South 373 429 18,700 -1,200 Descending FlightAware ADS-B
10:25AM 40.7892 -74.0445 156° South 371 427 18,400 -1,500 Descending FlightAware ADS-B
10:26AM 40.7509 -74.0217 156° South 369 425 17,800 -1,380 Descending FlightAware ADS-B
10:26AM 40.7409 -74.0158 156° South 368 423 17,700 -1,500 Descending FlightAware ADS-B
10:26AM 40.7007 -73.9921 156° South 368 423 17,000 -1,620 Descending FlightAware ADS-B
10:26AM 40.6946 -73.9885 156° South 365 420 16,900 -1,380 Descending FlightAware ADS-B
10:27AM 40.6474 -73.9614 156° South 360 414 16,200 -1,440 Descending FlightAware ADS-B
10:27AM 40.5985 -73.9332 156° South 352 405 15,400 -2,280 Descending FlightAware ADS-B
10:28AM 40.5536 -73.9080 157° South 352 405 13,900 -2,880 Descending FlightAware ADS-B
10:28AM 40.5082 -73.8832 157° South 346 398 12,500 -2,520 Descending FlightAware ADS-B
10:29AM 40.4905 -73.8727 156° South 339 390 12,100 -2,100 Descending FlightAware ADS-B
10:29AM 40.4804 -73.8643 148° Southeast 342 394 11,800 -2,040 Descending FlightAware ADS-B
10:29AM 40.4722 -73.8545 138° Southeast 342 394 11,600 -2,580 Descending FlightAware ADS-B
10:29AM 40.4377 -73.8026 131° Southeast 338 389 10,100 -2,520 Descending FlightAware ADS-B
10:30AM 40.4221 -73.7789 131° Southeast 340 391 9,600 -1,740 Descending FlightAware ADS-B
10:30AM 40.4095 -73.7578 128° Southeast 342 394 9,300 -1,080 Descending FlightAware ADS-B
10:30AM 40.4066 -73.7510 119° Southeast 341 392 9,300 -540 Level FlightAware ADS-B
10:30AM 40.4018 -73.7364 113° Southeast 337 388 9,200 -720 Descending FlightAware ADS-B
10:30AM 40.3974 -73.7186 108° East 328 377 9,100 -1,200 Descending FlightAware ADS-B
10:31AM 40.3910 -73.6894 106° East 318 366 8,700 -1,500 Descending FlightAware ADS-B
10:31AM 40.3832 -73.6528 106° East 313 360 8,200 -1,380 Descending FlightAware ADS-B
10:31AM 40.3771 -73.6236 105° East 306 352 7,900 -1,200 Descending FlightAware ADS-B
10:31AM 40.3759 -73.6070 95° East 300 345 7,700 -1,800 Descending FlightAware ADS-B
10:32AM 40.3822 -73.5772 74° East 282 325 7,100 -2,220 Descending FlightAware ADS-B
10:32AM 40.3851 -73.5716 56° Northeast 279 321 6,900 -2,820 Descending FlightAware ADS-B
10:32AM 40.3950 -73.5590 44° Northeast 269 310 6,400 -2,220 Descending FlightAware ADS-B
10:32AM 40.4143 -73.5422 34° Northeast 271 312 5,800 -1,500 Descending FlightAware ADS-B
10:33AM 40.4382 -73.5228 32° Northeast 269 310 5,400 -1,320 Descending FlightAware ADS-B
10:33AM 40.4840 -73.5130 North 242 278 4,400 -1,620 Descending FlightAware
10:34AM 40.5140 -73.5250 343° North 230 265 3,500 -1,620 Descending FlightAware
10:34AM 40.5280 -73.5350 332° Northwest 225 259 3,200 -780 Descending FlightAware
10:34AM 40.5480 -73.5530 326° Northwest 209 241 3,000 -600 Descending FlightAware
10:35AM 40.5570 -73.5700 305° West 198 228 2,800 -780 Descending FlightAware
10:35AM 40.5680 -73.5940 301° West 185 213 2,500 -600 Descending FlightAware
10:35AM 40.5790 -73.6170 302° West 167 192 2,300 -720 Descending FlightAware
10:36AM 40.5890 -73.6380 302° West 149 171 1,900 -600 Descending FlightAware
10:36AM 40.5940 -73.6490 301° West 155 178 1,900 -540 Level FlightAware
10:37AM 40.6050 -73.6730 301° West 144 166 1,500 -780 Descending FlightAware
10:37AM 40.6130 -73.6920 299° West 134 154 1,200 -780 Descending FlightAware
10:38AM 40.6230 -73.7130 302° West 131 151 800 -780 Descending FlightAware
10:38AM 40.6300 -73.7290 300° West 134 154 500 -780 Descending FlightAware
10:38AM 40.6400 -73.7510 301° West 131 151 100 -840 Descending FlightAware